sensor_id;sensor_type;location;lat;lon;timestamp;pressure;altitude;pressure_sealevel;temperature;humidity
66742;BME280;53654;54.152;19.432;2023-11-21T00:00:05;101143.32;;;2.21;60.01
66742;BME280;53654;54.152;19.432;2023-11-21T00:02:59;101146.84;;;2.18;60.08
66742;BME280;53654;54.152;19.432;2023-11-21T00:05:27;101153.05;;;2.18;60.12
66742;BME280;53654;54.152;19.432;2023-11-21T00:07:55;101155.52;;;2.20;59.95
66742;BME280;53654;54.152;19.432;2023-11-21T00:10:24;101154.89;;;2.22;59.75
66742;BME280;53654;54.152;19.432;2023-11-21T00:12:52;101162.96;;;2.21;59.93
66742;BME280;53654;54.152;19.432;2023-11-21T00:15:23;101161.92;;;2.21;59.76
66742;BME280;53654;54.152;19.432;2023-11-21T00:17:51;101164.37;;;2.22;59.37
66742;BME280;53654;54.152;19.432;2023-11-21T00:20:21;101166.56;;;2.21;59.15
66742;BME280;53654;54.152;19.432;2023-11-21T00:22:49;101172.37;;;2.19;59.17
66742;BME280;53654;54.152;19.432;2023-11-21T00:25:18;101176.59;;;2.17;58.73
66742;BME280;53654;54.152;19.432;2023-11-21T00:27:46;101181.84;;;2.14;58.92
66742;BME280;53654;54.152;19.432;2023-11-21T00:30:14;101179.92;;;2.14;58.90
66742;BME280;53654;54.152;19.432;2023-11-21T00:32:43;101177.88;;;2.14;58.98
66742;BME280;53654;54.152;19.432;2023-11-21T00:35:11;101182.55;;;2.15;58.88
66742;BME280;53654;54.152;19.432;2023-11-21T00:37:39;101176.89;;;2.15;58.68
66742;BME280;53654;54.152;19.432;2023-11-21T00:40:09;101182.19;;;2.14;58.84
66742;BME280;53654;54.152;19.432;2023-11-21T00:42:37;101185.27;;;2.08;58.81
66742;BME280;53654;54.152;19.432;2023-11-21T00:45:06;101184.83;;;2.05;58.84
66742;BME280;53654;54.152;19.432;2023-11-21T00:47:35;101187.70;;;2.04;59.06
66742;BME280;53654;54.152;19.432;2023-11-21T00:50:04;101188.17;;;2.03;58.91
66742;BME280;53654;54.152;19.432;2023-11-21T00:52:34;101190.98;;;2.00;58.60
66742;BME280;53654;54.152;19.432;2023-11-21T00:55:03;101189.29;;;1.94;57.88
66742;BME280;53654;54.152;19.432;2023-11-21T00:57:31;101188.52;;;1.92;58.30
66742;BME280;53654;54.152;19.432;2023-11-21T01:00:00;101190.45;;;1.93;58.30
66742;BME280;53654;54.152;19.432;2023-11-21T01:02:29;101195.24;;;1.93;57.92
66742;BME280;53654;54.152;19.432;2023-11-21T01:04:57;101198.14;;;1.92;57.40
66742;BME280;53654;54.152;19.432;2023-11-21T01:07:25;101192.64;;;1.92;57.44
66742;BME280;53654;54.152;19.432;2023-11-21T01:09:55;101201.67;;;1.95;57.30
66742;BME280;53654;54.152;19.432;2023-11-21T01:12:24;101202.48;;;1.93;57.12
66742;BME280;53654;54.152;19.432;2023-11-21T01:14:53;101207.91;;;1.91;56.85
66742;BME280;53654;54.152;19.432;2023-11-21T01:17:21;101213.78;;;1.87;56.50
66742;BME280;53654;54.152;19.432;2023-11-21T01:19:52;101211.43;;;1.88;56.40
66742;BME280;53654;54.152;19.432;2023-11-21T01:22:20;101211.85;;;1.90;56.17
66742;BME280;53654;54.152;19.432;2023-11-21T01:24:54;101207.20;;;1.90;56.05
66742;BME280;53654;54.152;19.432;2023-11-21T01:27:22;101205.64;;;1.90;56.03
66742;BME280;53654;54.152;19.432;2023-11-21T01:29:50;101206.86;;;1.90;55.79
66742;BME280;53654;54.152;19.432;2023-11-21T01:32:22;101207.45;;;1.92;56.00
66742;BME280;53654;54.152;19.432;2023-11-21T01:34:51;101212.17;;;1.95;55.98
66742;BME280;53654;54.152;19.432;2023-11-21T01:37:20;101211.19;;;1.96;55.90
66742;BME280;53654;54.152;19.432;2023-11-21T01:39:49;101213.98;;;1.97;56.20
66742;BME280;53654;54.152;19.432;2023-11-21T01:42:17;101212.02;;;1.95;56.11
66742;BME280;53654;54.152;19.432;2023-11-21T01:44:46;101210.61;;;1.95;56.44
66742;BME280;53654;54.152;19.432;2023-11-21T01:47:15;101212.83;;;1.94;56.57
66742;BME280;53654;54.152;19.432;2023-11-21T01:49:45;101220.14;;;1.91;56.57
66742;BME280;53654;54.152;19.432;2023-11-21T01:52:14;101224.14;;;1.87;56.33
66742;BME280;53654;54.152;19.432;2023-11-21T01:54:43;101225.21;;;1.88;56.32
66742;BME280;53654;54.152;19.432;2023-11-21T01:57:11;101226.98;;;1.90;56.78
66742;BME280;53654;54.152;19.432;2023-11-21T01:59:41;101226.52;;;1.91;56.55
66742;BME280;53654;54.152;19.432;2023-11-21T02:02:10;101228.05;;;1.91;56.51
66742;BME280;53654;54.152;19.432;2023-11-21T02:04:38;101232.91;;;1.92;56.41
66742;BME280;53654;54.152;19.432;2023-11-21T02:07:07;101231.77;;;1.94;56.32
66742;BME280;53654;54.152;19.432;2023-11-21T02:09:35;101230.23;;;1.95;56.23
66742;BME280;53654;54.152;19.432;2023-11-21T02:12:06;101232.61;;;1.93;56.22
66742;BME280;53654;54.152;19.432;2023-11-21T02:14:35;101238.86;;;1.95;56.19
66742;BME280;53654;54.152;19.432;2023-11-21T02:17:03;101243.08;;;1.98;55.68
66742;BME280;53654;54.152;19.432;2023-11-21T02:19:31;101246.43;;;2.00;55.73
66742;BME280;53654;54.152;19.432;2023-11-21T02:22:00;101243.92;;;2.02;55.74
66742;BME280;53654;54.152;19.432;2023-11-21T02:24:31;101238.39;;;2.02;55.80
66742;BME280;53654;54.152;19.432;2023-11-21T02:26:59;101244.73;;;2.01;55.61
66742;BME280;53654;54.152;19.432;2023-11-21T02:29:28;101249.11;;;1.98;55.84
66742;BME280;53654;54.152;19.432;2023-11-21T02:31:56;101253.90;;;1.97;56.05
66742;BME280;53654;54.152;19.432;2023-11-21T02:34:24;101255.42;;;1.96;55.60
66742;BME280;53654;54.152;19.432;2023-11-21T02:36:53;101253.13;;;1.95;55.91
66742;BME280;53654;54.152;19.432;2023-11-21T02:39:22;101251.23;;;1.95;56.00
66742;BME280;53654;54.152;19.432;2023-11-21T02:41:50;101254.46;;;1.94;55.77
66742;BME280;53654;54.152;19.432;2023-11-21T02:44:18;101250.60;;;1.91;55.46
66742;BME280;53654;54.152;19.432;2023-11-21T02:46:47;101255.31;;;1.93;55.93
66742;BME280;53654;54.152;19.432;2023-11-21T02:49:15;101257.84;;;1.97;55.99
66742;BME280;53654;54.152;19.432;2023-11-21T02:51:44;101258.08;;;1.99;55.93
66742;BME280;53654;54.152;19.432;2023-11-21T02:54:12;101256.58;;;2.00;55.71
66742;BME280;53654;54.152;19.432;2023-11-21T02:56:40;101256.31;;;2.02;56.00
66742;BME280;53654;54.152;19.432;2023-11-21T02:59:09;101259.08;;;2.03;55.64
66742;BME280;53654;54.152;19.432;2023-11-21T03:01:37;101262.72;;;2.04;55.86
66742;BME280;53654;54.152;19.432;2023-11-21T03:04:05;101266.92;;;2.01;55.74
66742;BME280;53654;54.152;19.432;2023-11-21T03:06:34;101266.21;;;2.00;55.78
66742;BME280;53654;54.152;19.432;2023-11-21T03:09:03;101270.10;;;2.03;56.07
66742;BME280;53654;54.152;19.432;2023-11-21T03:11:31;101271.02;;;2.05;55.90
66742;BME280;53654;54.152;19.432;2023-11-21T03:14:00;101274.90;;;2.07;56.10
66742;BME280;53654;54.152;19.432;2023-11-21T03:16:28;101276.48;;;2.08;56.22
66742;BME280;53654;54.152;19.432;2023-11-21T03:18:56;101281.24;;;2.07;56.09
66742;BME280;53654;54.152;19.432;2023-11-21T03:21:25;101276.69;;;2.04;56.14
66742;BME280;53654;54.152;19.432;2023-11-21T03:23:54;101276.66;;;2.04;55.96
66742;BME280;53654;54.152;19.432;2023-11-21T03:26:22;101280.55;;;2.02;55.60
66742;BME280;53654;54.152;19.432;2023-11-21T03:28:51;101280.85;;;2.00;56.08
66742;BME280;53654;54.152;19.432;2023-11-21T03:31:21;101281.47;;;1.98;56.07
66742;BME280;53654;54.152;19.432;2023-11-21T03:33:50;101287.36;;;1.95;56.14
66742;BME280;53654;54.152;19.432;2023-11-21T03:36:18;101293.46;;;1.92;55.75
66742;BME280;53654;54.152;19.432;2023-11-21T03:38:48;101296.99;;;1.89;55.97
66742;BME280;53654;54.152;19.432;2023-11-21T03:41:16;101299.40;;;1.89;55.99
66742;BME280;53654;54.152;19.432;2023-11-21T03:43:45;101302.47;;;1.89;55.93
66742;BME280;53654;54.152;19.432;2023-11-21T03:46:14;101310.64;;;1.91;55.84
66742;BME280;53654;54.152;19.432;2023-11-21T03:48:43;101311.83;;;1.96;56.07
66742;BME280;53654;54.152;19.432;2023-11-21T03:51:11;101314.34;;;1.98;55.74
66742;BME280;53654;54.152;19.432;2023-11-21T03:53:39;101313.11;;;1.98;55.73
66742;BME280;53654;54.152;19.432;2023-11-21T03:56:09;101312.39;;;1.97;55.23
66742;BME280;53654;54.152;19.432;2023-11-21T03:58:37;101312.15;;;2.00;55.58
66742;BME280;53654;54.152;19.432;2023-11-21T04:01:06;101310.73;;;1.98;55.89
66742;BME280;53654;54.152;19.432;2023-11-21T04:03:34;101309.91;;;1.99;55.46
66742;BME280;53654;54.152;19.432;2023-11-21T04:06:02;101303.73;;;1.96;55.19
66742;BME280;53654;54.152;19.432;2023-11-21T04:08:30;101307.50;;;1.95;55.35
66742;BME280;53654;54.152;19.432;2023-11-21T04:10:58;101304.75;;;1.90;55.30
66742;BME280;53654;54.152;19.432;2023-11-21T04:13:26;101307.56;;;1.87;54.98
66742;BME280;53654;54.152;19.432;2023-11-21T04:15:54;101315.45;;;1.86;55.01
66742;BME280;53654;54.152;19.432;2023-11-21T04:18:23;101319.44;;;1.82;55.06
66742;BME280;53654;54.152;19.432;2023-11-21T04:20:52;101323.98;;;1.79;54.90
66742;BME280;53654;54.152;19.432;2023-11-21T04:23:20;101325.88;;;1.75;54.68
66742;BME280;53654;54.152;19.432;2023-11-21T04:25:48;101325.26;;;1.77;55.06
66742;BME280;53654;54.152;19.432;2023-11-21T04:28:16;101327.58;;;1.79;54.95
66742;BME280;53654;54.152;19.432;2023-11-21T04:30:44;101330.70;;;1.80;54.80
66742;BME280;53654;54.152;19.432;2023-11-21T04:33:13;101334.64;;;1.79;54.94
66742;BME280;53654;54.152;19.432;2023-11-21T04:35:41;101339.06;;;1.78;54.77
66742;BME280;53654;54.152;19.432;2023-11-21T04:38:09;101343.52;;;1.73;54.81
66742;BME280;53654;54.152;19.432;2023-11-21T04:40:37;101342.48;;;1.73;55.06
66742;BME280;53654;54.152;19.432;2023-11-21T04:43:06;101349.43;;;1.70;55.28
66742;BME280;53654;54.152;19.432;2023-11-21T04:45:34;101351.41;;;1.68;55.26
66742;BME280;53654;54.152;19.432;2023-11-21T04:48:03;101352.45;;;1.68;55.23
66742;BME280;53654;54.152;19.432;2023-11-21T04:50:31;101353.91;;;1.66;55.45
66742;BME280;53654;54.152;19.432;2023-11-21T04:52:59;101351.88;;;1.66;55.74
66742;BME280;53654;54.152;19.432;2023-11-21T04:55:28;101358.44;;;1.62;55.84
66742;BME280;53654;54.152;19.432;2023-11-21T04:57:56;101359.39;;;1.59;55.79
66742;BME280;53654;54.152;19.432;2023-11-21T05:00:24;101359.77;;;1.61;56.39
66742;BME280;53654;54.152;19.432;2023-11-21T05:02:52;101359.73;;;1.60;56.33
66742;BME280;53654;54.152;19.432;2023-11-21T05:05:21;101366.17;;;1.57;56.63
66742;BME280;53654;54.152;19.432;2023-11-21T05:07:49;101372.29;;;1.55;56.53
66742;BME280;53654;54.152;19.432;2023-11-21T05:10:17;101373.05;;;1.52;56.82
66742;BME280;53654;54.152;19.432;2023-11-21T05:12:45;101376.65;;;1.52;57.11
66742;BME280;53654;54.152;19.432;2023-11-21T05:15:15;101381.86;;;1.54;57.13
66742;BME280;53654;54.152;19.432;2023-11-21T05:17:44;101386.23;;;1.56;57.22
66742;BME280;53654;54.152;19.432;2023-11-21T05:20:14;101392.91;;;1.55;56.97
66742;BME280;53654;54.152;19.432;2023-11-21T05:22:46;101395.23;;;1.53;57.19
66742;BME280;53654;54.152;19.432;2023-11-21T05:25:16;101407.05;;;1.52;57.16
66742;BME280;53654;54.152;19.432;2023-11-21T05:27:47;101406.67;;;1.46;57.07
66742;BME280;53654;54.152;19.432;2023-11-21T05:30:15;101410.13;;;1.38;57.18
66742;BME280;53654;54.152;19.432;2023-11-21T05:32:43;101410.59;;;1.37;57.28
66742;BME280;53654;54.152;19.432;2023-11-21T05:35:12;101408.73;;;1.33;57.43
66742;BME280;53654;54.152;19.432;2023-11-21T05:37:45;101414.41;;;1.29;57.70
66742;BME280;53654;54.152;19.432;2023-11-21T05:40:14;101415.00;;;1.22;57.82
66742;BME280;53654;54.152;19.432;2023-11-21T05:42:44;101413.82;;;1.19;58.07
66742;BME280;53654;54.152;19.432;2023-11-21T05:45:12;101421.79;;;1.16;57.87
66742;BME280;53654;54.152;19.432;2023-11-21T05:47:45;101425.70;;;1.11;57.87
66742;BME280;53654;54.152;19.432;2023-11-21T05:50:16;101432.48;;;1.13;58.34
66742;BME280;53654;54.152;19.432;2023-11-21T05:52:45;101434.71;;;1.17;58.29
66742;BME280;53654;54.152;19.432;2023-11-21T05:55:14;101442.64;;;1.21;58.37
66742;BME280;53654;54.152;19.432;2023-11-21T05:57:43;101447.70;;;1.23;58.49
66742;BME280;53654;54.152;19.432;2023-11-21T06:00:13;101452.70;;;1.24;58.56
66742;BME280;53654;54.152;19.432;2023-11-21T06:02:49;101458.13;;;1.22;58.63
66742;BME280;53654;54.152;19.432;2023-11-21T06:05:23;101465.72;;;1.23;58.46
66742;BME280;53654;54.152;19.432;2023-11-21T06:07:53;101468.98;;;1.27;58.64
66742;BME280;53654;54.152;19.432;2023-11-21T06:10:23;101472.90;;;1.30;58.69
66742;BME280;53654;54.152;19.432;2023-11-21T06:12:53;101483.98;;;1.32;58.68
66742;BME280;53654;54.152;19.432;2023-11-21T06:15:21;101489.29;;;1.31;58.83
66742;BME280;53654;54.152;19.432;2023-11-21T06:17:52;101493.42;;;1.32;58.85
66742;BME280;53654;54.152;19.432;2023-11-21T06:20:21;101501.92;;;1.34;58.82
66742;BME280;53654;54.152;19.432;2023-11-21T06:22:51;101499.10;;;1.27;58.74
66742;BME280;53654;54.152;19.432;2023-11-21T06:25:20;101499.92;;;1.27;59.01
66742;BME280;53654;54.152;19.432;2023-11-21T06:27:49;101502.90;;;1.28;59.02
66742;BME280;53654;54.152;19.432;2023-11-21T06:30:19;101510.02;;;1.26;59.23
66742;BME280;53654;54.152;19.432;2023-11-21T06:32:48;101509.02;;;1.22;59.07
66742;BME280;53654;54.152;19.432;2023-11-21T06:35:17;101508.98;;;1.21;59.21
66742;BME280;53654;54.152;19.432;2023-11-21T06:37:45;101514.66;;;1.22;59.28
66742;BME280;53654;54.152;19.432;2023-11-21T06:40:18;101515.53;;;1.22;59.37
66742;BME280;53654;54.152;19.432;2023-11-21T06:42:48;101518.42;;;1.21;59.35
66742;BME280;53654;54.152;19.432;2023-11-21T06:45:18;101523.48;;;1.15;59.37
66742;BME280;53654;54.152;19.432;2023-11-21T06:47:46;101523.44;;;1.14;59.36
66742;BME280;53654;54.152;19.432;2023-11-21T06:50:14;101527.38;;;1.09;59.70
66742;BME280;53654;54.152;19.432;2023-11-21T06:52:43;101525.52;;;1.06;59.45
66742;BME280;53654;54.152;19.432;2023-11-21T06:55:11;101537.64;;;1.04;59.36
66742;BME280;53654;54.152;19.432;2023-11-21T06:57:39;101541.23;;;1.04;59.44
66742;BME280;53654;54.152;19.432;2023-11-21T07:00:08;101542.95;;;1.04;59.34
66742;BME280;53654;54.152;19.432;2023-11-21T07:02:37;101544.57;;;1.06;59.40
66742;BME280;53654;54.152;19.432;2023-11-21T07:05:07;101546.13;;;1.06;59.52
66742;BME280;53654;54.152;19.432;2023-11-21T07:07:35;101550.42;;;1.10;59.63
66742;BME280;53654;54.152;19.432;2023-11-21T07:10:06;101553.38;;;1.15;59.67
66742;BME280;53654;54.152;19.432;2023-11-21T07:12:36;101553.13;;;1.21;59.70
66742;BME280;53654;54.152;19.432;2023-11-21T07:15:04;101557.16;;;1.27;59.75
66742;BME280;53654;54.152;19.432;2023-11-21T07:17:33;101566.85;;;1.32;59.30
66742;BME280;53654;54.152;19.432;2023-11-21T07:20:07;101567.14;;;1.31;59.07
66742;BME280;53654;54.152;19.432;2023-11-21T07:22:36;101566.27;;;1.31;58.84
66742;BME280;53654;54.152;19.432;2023-11-21T07:25:05;101575.13;;;1.29;58.55
66742;BME280;53654;54.152;19.432;2023-11-21T07:27:33;101572.70;;;1.28;58.49
66742;BME280;53654;54.152;19.432;2023-11-21T07:30:04;101573.68;;;1.23;58.76
66742;BME280;53654;54.152;19.432;2023-11-21T07:32:32;101573.01;;;1.19;59.06
66742;BME280;53654;54.152;19.432;2023-11-21T07:35:01;101578.57;;;1.21;59.35
66742;BME280;53654;54.152;19.432;2023-11-21T07:37:30;101579.27;;;1.21;59.40
66742;BME280;53654;54.152;19.432;2023-11-21T07:39:58;101584.77;;;1.21;59.48
66742;BME280;53654;54.152;19.432;2023-11-21T07:42:27;101588.45;;;1.19;59.54
66742;BME280;53654;54.152;19.432;2023-11-21T07:44:55;101595.33;;;1.15;59.08
66742;BME280;53654;54.152;19.432;2023-11-21T07:47:24;101596.96;;;1.13;59.06
66742;BME280;53654;54.152;19.432;2023-11-21T07:49:55;101599.77;;;1.06;58.77
66742;BME280;53654;54.152;19.432;2023-11-21T07:52:24;101596.95;;;1.01;59.14
66742;BME280;53654;54.152;19.432;2023-11-21T07:54:55;101604.13;;;1.00;59.42
66742;BME280;53654;54.152;19.432;2023-11-21T07:57:24;101607.27;;;0.97;59.27
66742;BME280;53654;54.152;19.432;2023-11-21T07:59:52;101603.34;;;1.02;59.27
66742;BME280;53654;54.152;19.432;2023-11-21T08:02:22;101600.66;;;1.03;59.12
66742;BME280;53654;54.152;19.432;2023-11-21T08:04:50;101598.77;;;0.99;58.64
66742;BME280;53654;54.152;19.432;2023-11-21T08:07:19;101599.43;;;0.99;59.00
66742;BME280;53654;54.152;19.432;2023-11-21T08:09:47;101601.16;;;0.99;59.02
66742;BME280;53654;54.152;19.432;2023-11-21T08:12:18;101607.61;;;0.97;59.11
66742;BME280;53654;54.152;19.432;2023-11-21T08:14:47;101608.01;;;0.99;59.24
66742;BME280;53654;54.152;19.432;2023-11-21T08:17:16;101611.52;;;0.96;59.22
66742;BME280;53654;54.152;19.432;2023-11-21T08:19:45;101618.95;;;0.89;59.45
66742;BME280;53654;54.152;19.432;2023-11-21T08:22:18;101622.48;;;0.84;59.55
66742;BME280;53654;54.152;19.432;2023-11-21T08:24:46;101625.87;;;0.79;59.36
66742;BME280;53654;54.152;19.432;2023-11-21T08:27:14;101626.65;;;0.73;59.58
66742;BME280;53654;54.152;19.432;2023-11-21T08:29:44;101634.62;;;0.67;59.59
66742;BME280;53654;54.152;19.432;2023-11-21T08:32:12;101637.50;;;0.63;59.75
66742;BME280;53654;54.152;19.432;2023-11-21T08:34:40;101637.39;;;0.56;59.95
66742;BME280;53654;54.152;19.432;2023-11-21T08:37:11;101637.13;;;0.55;59.93
66742;BME280;53654;54.152;19.432;2023-11-21T08:39:40;101640.41;;;0.51;59.91
66742;BME280;53654;54.152;19.432;2023-11-21T08:42:09;101641.95;;;0.48;59.85
66742;BME280;53654;54.152;19.432;2023-11-21T08:44:38;101640.27;;;0.45;60.14
66742;BME280;53654;54.152;19.432;2023-11-21T08:47:07;101647.02;;;0.42;60.09
66742;BME280;53654;54.152;19.432;2023-11-21T08:49:36;101650.36;;;0.37;60.01
66742;BME280;53654;54.152;19.432;2023-11-21T08:52:04;101650.17;;;0.36;59.92
66742;BME280;53654;54.152;19.432;2023-11-21T08:54:33;101648.43;;;0.36;59.85
66742;BME280;53654;54.152;19.432;2023-11-21T08:57:02;101655.08;;;0.35;59.76
66742;BME280;53654;54.152;19.432;2023-11-21T08:59:30;101646.33;;;0.31;59.66
66742;BME280;53654;54.152;19.432;2023-11-21T09:01:59;101648.77;;;0.28;59.58
66742;BME280;53654;54.152;19.432;2023-11-21T09:04:27;101650.41;;;0.27;59.56
66742;BME280;53654;54.152;19.432;2023-11-21T09:06:55;101649.55;;;0.23;59.35
66742;BME280;53654;54.152;19.432;2023-11-21T09:09:23;101651.87;;;0.25;59.36
66742;BME280;53654;54.152;19.432;2023-11-21T09:11:53;101657.15;;;0.24;58.78
66742;BME280;53654;54.152;19.432;2023-11-21T09:14:21;101658.33;;;0.30;59.03
66742;BME280;53654;54.152;19.432;2023-11-21T09:16:49;101656.50;;;0.36;59.15
66742;BME280;53654;54.152;19.432;2023-11-21T09:19:18;101661.92;;;0.42;58.70
66742;BME280;53654;54.152;19.432;2023-11-21T09:21:47;101660.69;;;0.41;58.30
66742;BME280;53654;54.152;19.432;2023-11-21T09:24:15;101671.10;;;0.43;58.04
66742;BME280;53654;54.152;19.432;2023-11-21T09:26:44;101667.00;;;0.48;57.75
66742;BME280;53654;54.152;19.432;2023-11-21T09:29:13;101673.56;;;0.48;57.31
66742;BME280;53654;54.152;19.432;2023-11-21T09:31:41;101666.83;;;0.51;57.28
66742;BME280;53654;54.152;19.432;2023-11-21T09:34:12;101669.92;;;0.55;57.50
66742;BME280;53654;54.152;19.432;2023-11-21T09:36:40;101668.08;;;0.59;57.07
66742;BME280;53654;54.152;19.432;2023-11-21T09:39:09;101669.58;;;0.66;56.83
66742;BME280;53654;54.152;19.432;2023-11-21T09:41:52;101676.56;;;0.72;56.47
66742;BME280;53654;54.152;19.432;2023-11-21T09:44:51;101672.41;;;0.75;56.75
66742;BME280;53654;54.152;19.432;2023-11-21T09:47:26;101676.09;;;0.84;56.68
66742;BME280;53654;54.152;19.432;2023-11-21T09:49:56;101673.95;;;0.94;56.38
66742;BME280;53654;54.152;19.432;2023-11-21T09:52:31;101672.84;;;1.00;55.57
66742;BME280;53654;54.152;19.432;2023-11-21T09:55:01;101673.08;;;1.05;55.27
66742;BME280;53654;54.152;19.432;2023-11-21T09:57:30;101666.66;;;1.11;55.02
66742;BME280;53654;54.152;19.432;2023-11-21T10:00:01;101672.27;;;1.18;55.36
66742;BME280;53654;54.152;19.432;2023-11-21T10:02:34;101669.44;;;1.24;54.09
66742;BME280;53654;54.152;19.432;2023-11-21T10:05:04;101669.98;;;1.28;53.67
66742;BME280;53654;54.152;19.432;2023-11-21T10:07:34;101673.47;;;1.33;53.99
66742;BME280;53654;54.152;19.432;2023-11-21T10:10:05;101674.73;;;1.38;53.46
66742;BME280;53654;54.152;19.432;2023-11-21T10:12:36;101673.32;;;1.41;52.86
66742;BME280;53654;54.152;19.432;2023-11-21T10:15:08;101663.46;;;1.44;52.46
66742;BME280;53654;54.152;19.432;2023-11-21T10:17:38;101663.17;;;1.45;52.22
66742;BME280;53654;54.152;19.432;2023-11-21T10:20:11;101668.83;;;1.53;52.59
66742;BME280;53654;54.152;19.432;2023-11-21T10:22:42;101669.53;;;1.61;52.57
66742;BME280;53654;54.152;19.432;2023-11-21T10:25:10;101666.23;;;1.69;52.61
66742;BME280;53654;54.152;19.432;2023-11-21T10:27:39;101670.36;;;1.77;52.48
66742;BME280;53654;54.152;19.432;2023-11-21T10:30:08;101666.65;;;1.87;52.09
66742;BME280;53654;54.152;19.432;2023-11-21T10:32:40;101669.66;;;1.89;51.11
66742;BME280;53654;54.152;19.432;2023-11-21T10:35:09;101664.44;;;1.92;51.22
66742;BME280;53654;54.152;19.432;2023-11-21T10:37:41;101670.65;;;1.97;51.60
66742;BME280;53654;54.152;19.432;2023-11-21T10:40:11;101675.65;;;2.01;51.51
66742;BME280;53654;54.152;19.432;2023-11-21T10:42:41;101683.95;;;2.02;51.35
66742;BME280;53654;54.152;19.432;2023-11-21T10:45:09;101678.67;;;2.03;50.66
66742;BME280;53654;54.152;19.432;2023-11-21T10:47:42;101683.89;;;2.04;51.00
66742;BME280;53654;54.152;19.432;2023-11-21T10:50:11;101683.10;;;2.10;51.53
66742;BME280;53654;54.152;19.432;2023-11-21T10:52:40;101686.54;;;2.14;50.95
66742;BME280;53654;54.152;19.432;2023-11-21T10:55:18;101678.42;;;2.18;50.99
66742;BME280;53654;54.152;19.432;2023-11-21T10:57:52;101678.05;;;2.22;50.96
66742;BME280;53654;54.152;19.432;2023-11-21T11:00:22;101676.88;;;2.27;50.88
66742;BME280;53654;54.152;19.432;2023-11-21T11:02:52;101689.45;;;2.32;50.72
66742;BME280;53654;54.152;19.432;2023-11-21T11:05:25;101685.94;;;2.34;49.85
66742;BME280;53654;54.152;19.432;2023-11-21T11:08:00;101688.25;;;2.36;50.08
66742;BME280;53654;54.152;19.432;2023-11-21T11:10:31;101683.90;;;2.39;50.45
66742;BME280;53654;54.152;19.432;2023-11-21T11:13:00;101690.10;;;2.44;50.21
66742;BME280;53654;54.152;19.432;2023-11-21T11:15:29;101696.17;;;2.49;50.45
66742;BME280;53654;54.152;19.432;2023-11-21T11:17:57;101697.18;;;2.52;50.31
66742;BME280;53654;54.152;19.432;2023-11-21T11:20:30;101704.86;;;2.51;49.61
66742;BME280;53654;54.152;19.432;2023-11-21T11:28:29;101696.30;;;2.39;49.97
66742;BME280;53654;54.152;19.432;2023-11-21T11:34:08;101698.19;;;2.39;50.92
66742;BME280;53654;54.152;19.432;2023-11-21T11:36:53;101706.49;;;2.44;50.76
66742;BME280;53654;54.152;19.432;2023-11-21T11:39:42;101706.54;;;2.50;50.79
66742;BME280;53654;54.152;19.432;2023-11-21T11:42:15;101708.44;;;2.54;50.53
66742;BME280;53654;54.152;19.432;2023-11-21T11:47:16;101716.44;;;2.56;50.40
66742;BME280;53654;54.152;19.432;2023-11-21T11:50:05;101719.60;;;2.53;49.86
66742;BME280;53654;54.152;19.432;2023-11-21T11:52:50;101712.03;;;2.45;50.77
66742;BME280;53654;54.152;19.432;2023-11-21T11:55:22;101717.95;;;2.46;50.73
66742;BME280;53654;54.152;19.432;2023-11-21T11:57:54;101720.86;;;2.50;50.63
66742;BME280;53654;54.152;19.432;2023-11-21T12:03:00;101721.42;;;2.60;50.56
66742;BME280;53654;54.152;19.432;2023-11-21T12:05:33;101726.20;;;2.68;50.39
66742;BME280;53654;54.152;19.432;2023-11-21T12:08:05;101726.30;;;2.70;50.49
66742;BME280;53654;54.152;19.432;2023-11-21T12:10:35;101734.53;;;2.74;50.28
66742;BME280;53654;54.152;19.432;2023-11-21T12:13:09;101742.89;;;2.76;50.20
66742;BME280;53654;54.152;19.432;2023-11-21T12:15:39;101744.60;;;2.76;50.11
66742;BME280;53654;54.152;19.432;2023-11-21T12:18:10;101751.52;;;2.81;50.12
66742;BME280;53654;54.152;19.432;2023-11-21T12:20:38;101753.91;;;2.84;49.99
66742;BME280;53654;54.152;19.432;2023-11-21T12:23:08;101750.38;;;2.86;49.09
66742;BME280;53654;54.152;19.432;2023-11-21T12:25:38;101748.52;;;2.87;48.91
66742;BME280;53654;54.152;19.432;2023-11-21T12:28:10;101757.30;;;2.92;49.37
66742;BME280;53654;54.152;19.432;2023-11-21T12:30:40;101752.11;;;2.91;48.75
66742;BME280;53654;54.152;19.432;2023-11-21T12:33:09;101756.52;;;2.95;48.77
66742;BME280;53654;54.152;19.432;2023-11-21T12:35:38;101760.91;;;2.96;48.78
66742;BME280;53654;54.152;19.432;2023-11-21T12:38:06;101762.12;;;2.92;47.30
66742;BME280;53654;54.152;19.432;2023-11-21T12:40:37;101765.21;;;2.87;47.36
66742;BME280;53654;54.152;19.432;2023-11-21T12:43:07;101768.79;;;2.81;47.47
66742;BME280;53654;54.152;19.432;2023-11-21T12:45:35;101767.90;;;2.80;47.54
66742;BME280;53654;54.152;19.432;2023-11-21T12:48:06;101766.63;;;2.79;47.45
66742;BME280;53654;54.152;19.432;2023-11-21T12:50:39;101776.65;;;2.84;47.53
66742;BME280;53654;54.152;19.432;2023-11-21T12:53:12;101777.71;;;2.85;46.80
66742;BME280;53654;54.152;19.432;2023-11-21T12:55:40;101780.55;;;2.78;46.59
66742;BME280;53654;54.152;19.432;2023-11-21T12:58:11;101780.00;;;2.73;46.88
66742;BME280;53654;54.152;19.432;2023-11-21T13:00:48;101780.27;;;2.67;46.93
66742;BME280;53654;54.152;19.432;2023-11-21T13:03:17;101783.32;;;2.66;47.49
66742;BME280;53654;54.152;19.432;2023-11-21T13:05:48;101784.11;;;2.64;47.85
66742;BME280;53654;54.152;19.432;2023-11-21T13:08:23;101788.08;;;2.64;47.66
66742;BME280;53654;54.152;19.432;2023-11-21T13:10:54;101789.77;;;2.67;47.94
66742;BME280;53654;54.152;19.432;2023-11-21T13:13:28;101795.11;;;2.67;48.09
66742;BME280;53654;54.152;19.432;2023-11-21T13:16:00;101803.70;;;2.67;48.11